NKS272 MKJS-KFLL
Flight info
| Callsign | NKS272 |
|---|---|
| Flight time | N/A |
| Altitude | 36000 |
| Route | OTUNU UL417 BORDO OLAHS3 |
| Aircraft | A321/M-SDE3FGHIRWY/LB1 |
Departure
| Time | N/A |
|---|---|
| Airport | Sangster International Airport (MKJS) |
Arrival
| Time | 2026-05-03 22:02 |
|---|---|
| Airport | Fort Lauderdale Hollywood International Airport (KFLL) |
| Time | Latitude | Longitude | Altitude | Speed | Heading |
|---|---|---|---|---|---|
| 2026-05-03 21:17 | 24.02179 | -78.45889 | 36037 ft | 470 kts | 352° |
| 2026-05-03 21:17 | 24.05465 | -78.45882 | 36042 ft | 472 kts | 353° |
| 2026-05-03 21:18 | 24.12030 | -78.45822 | 36041 ft | 472 kts | 353° |
| 2026-05-03 21:18 | 24.18598 | -78.45763 | 36038 ft | 472 kts | 352° |
| 2026-05-03 21:19 | 24.25165 | -78.45729 | 36041 ft | 472 kts | 352° |
| 2026-05-03 21:19 | 24.31688 | -78.45692 | 36041 ft | 472 kts | 352° |
| 2026-05-03 21:20 | 24.38264 | -78.45653 | 36041 ft | 472 kts | 352° |
| 2026-05-03 21:20 | 24.41549 | -78.45633 | 35842 ft | 472 kts | 352° |
| 2026-05-03 21:20 | 24.44841 | -78.45618 | 35073 ft | 476 kts | 352° |
| 2026-05-03 21:21 | 24.48174 | -78.45612 | 34277 ft | 480 kts | 353° |
| 2026-05-03 21:21 | 24.51528 | -78.45608 | 33383 ft | 485 kts | 353° |
| 2026-05-03 21:21 | 24.54913 | -78.45605 | 32497 ft | 488 kts | 353° |
| 2026-05-03 21:21 | 24.58325 | -78.45601 | 31575 ft | 492 kts | 353° |
| 2026-05-03 21:22 | 24.61765 | -78.45598 | 30643 ft | 497 kts | 354° |
| 2026-05-03 21:22 | 24.65245 | -78.45592 | 29528 ft | 503 kts | 354° |
| 2026-05-03 21:22 | 24.68761 | -78.45584 | 28441 ft | 506 kts | 354° |
| 2026-05-03 21:22 | 24.72283 | -78.45576 | 27406 ft | 507 kts | 354° |
| 2026-05-03 21:23 | 24.75838 | -78.45568 | 26283 ft | 510 kts | 355° |
| 2026-05-03 21:23 | 24.79343 | -78.45553 | 26001 ft | 495 kts | 355° |
| 2026-05-03 21:23 | 24.82725 | -78.45535 | 25890 ft | 478 kts | 355° |
| 2026-05-03 21:23 | 24.85991 | -78.45517 | 25769 ft | 461 kts | 354° |
| 2026-05-03 21:24 | 24.89154 | -78.45503 | 25640 ft | 446 kts | 354° |
| 2026-05-03 21:24 | 24.92220 | -78.45506 | 25394 ft | 436 kts | 354° |
| 2026-05-03 21:24 | 24.95233 | -78.45528 | 25162 ft | 431 kts | 353° |
| 2026-05-03 21:24 | 24.98224 | -78.45561 | 24937 ft | 429 kts | 353° |
| 2026-05-03 21:25 | 25.01205 | -78.45592 | 24712 ft | 427 kts | 353° |
| 2026-05-03 21:25 | 25.04174 | -78.45618 | 24487 ft | 425 kts | 354° |
| 2026-05-03 21:25 | 25.07130 | -78.45636 | 24267 ft | 424 kts | 354° |
| 2026-05-03 21:25 | 25.10073 | -78.45652 | 24044 ft | 422 kts | 354° |
| 2026-05-03 21:26 | 25.13005 | -78.45665 | 23929 ft | 419 kts | 354° |
| 2026-05-03 21:26 | 25.15928 | -78.45677 | 24027 ft | 421 kts | 354° |
| 2026-05-03 21:26 | 25.18857 | -78.45689 | 24023 ft | 421 kts | 354° |
| 2026-05-03 21:26 | 25.21788 | -78.45703 | 24022 ft | 421 kts | 354° |
| 2026-05-03 21:27 | 25.24720 | -78.45721 | 24025 ft | 421 kts | 354° |
| 2026-05-03 21:27 | 25.27649 | -78.45738 | 24024 ft | 421 kts | 354° |
| 2026-05-03 21:27 | 25.30581 | -78.45752 | 24028 ft | 421 kts | 354° |
| 2026-05-03 21:27 | 25.33514 | -78.45778 | 24025 ft | 420 kts | 351° |
| 2026-05-03 21:28 | 25.36353 | -78.46273 | 24026 ft | 409 kts | 337° |
| 2026-05-03 21:28 | 25.38939 | -78.47470 | 24026 ft | 398 kts | 323° |
| 2026-05-03 21:28 | 25.41155 | -78.49240 | 23814 ft | 391 kts | 312° |
| 2026-05-03 21:28 | 25.42920 | -78.51490 | 23205 ft | 383 kts | 298° |
| 2026-05-03 21:29 | 25.44143 | -78.54056 | 22761 ft | 373 kts | 288° |
| 2026-05-03 21:29 | 25.45140 | -78.56689 | 22327 ft | 369 kts | 289° |
| 2026-05-03 21:29 | 25.46138 | -78.59298 | 21891 ft | 366 kts | 289° |
| 2026-05-03 21:29 | 25.47130 | -78.61880 | 21452 ft | 364 kts | 289° |
| 2026-05-03 21:30 | 25.48119 | -78.64452 | 21026 ft | 362 kts | 289° |
| 2026-05-03 21:30 | 25.49101 | -78.67004 | 20602 ft | 360 kts | 289° |
| 2026-05-03 21:30 | 25.50078 | -78.69544 | 20202 ft | 357 kts | 289° |
| 2026-05-03 21:30 | 25.51038 | -78.72045 | 19915 ft | 349 kts | 289° |
| 2026-05-03 21:31 | 25.51969 | -78.74471 | 19415 ft | 345 kts | 289° |
| 2026-05-03 21:31 | 25.52917 | -78.76949 | 18948 ft | 344 kts | 289° |
| 2026-05-03 21:31 | 25.53845 | -78.79385 | 18486 ft | 343 kts | 289° |
| 2026-05-03 21:31 | 25.54755 | -78.81778 | 18016 ft | 341 kts | 289° |
| 2026-05-03 21:32 | 25.55670 | -78.84183 | 17572 ft | 337 kts | 289° |
| 2026-05-03 21:32 | 25.56577 | -78.86565 | 17140 ft | 334 kts | 290° |
| 2026-05-03 21:32 | 25.57489 | -78.88958 | 16694 ft | 332 kts | 290° |
| 2026-05-03 21:32 | 25.58372 | -78.91275 | 16286 ft | 329 kts | 290° |
| 2026-05-03 21:33 | 25.59258 | -78.93607 | 15872 ft | 327 kts | 290° |
| 2026-05-03 21:33 | 25.60141 | -78.95925 | 15418 ft | 326 kts | 290° |
| 2026-05-03 21:33 | 25.61019 | -78.98228 | 15004 ft | 324 kts | 290° |
| 2026-05-03 21:33 | 25.61893 | -79.00522 | 14589 ft | 322 kts | 290° |
| 2026-05-03 21:34 | 25.62760 | -79.02804 | 14179 ft | 320 kts | 290° |
| 2026-05-03 21:34 | 25.63619 | -79.05077 | 13757 ft | 318 kts | 290° |
| 2026-05-03 21:34 | 25.64464 | -79.07335 | 13326 ft | 316 kts | 290° |
| 2026-05-03 21:34 | 25.65300 | -79.09573 | 12925 ft | 313 kts | 290° |
| 2026-05-03 21:35 | 25.66133 | -79.11793 | 12536 ft | 311 kts | 290° |
| 2026-05-03 21:35 | 25.66964 | -79.14000 | 12143 ft | 309 kts | 290° |
| 2026-05-03 21:35 | 25.67787 | -79.16188 | 11753 ft | 307 kts | 290° |
| 2026-05-03 21:35 | 25.68603 | -79.18365 | 11360 ft | 305 kts | 290° |
| 2026-05-03 21:36 | 25.69414 | -79.20529 | 10981 ft | 303 kts | 290° |
| 2026-05-03 21:36 | 25.70217 | -79.22675 | 10595 ft | 301 kts | 290° |
| 2026-05-03 21:36 | 25.71015 | -79.24812 | 10248 ft | 298 kts | 290° |
| 2026-05-03 21:36 | 25.71793 | -79.26890 | 10130 ft | 286 kts | 290° |
| 2026-05-03 21:37 | 25.72544 | -79.28893 | 9904 ft | 279 kts | 290° |
| 2026-05-03 21:37 | 25.73274 | -79.30848 | 9839 ft | 274 kts | 290° |
| 2026-05-03 21:37 | 25.73996 | -79.32804 | 9621 ft | 274 kts | 290° |
| 2026-05-03 21:37 | 25.74713 | -79.34759 | 9406 ft | 273 kts | 290° |
| 2026-05-03 21:38 | 25.75427 | -79.36709 | 9182 ft | 273 kts | 290° |
| 2026-05-03 21:38 | 25.76138 | -79.38655 | 8961 ft | 272 kts | 290° |
| 2026-05-03 21:38 | 25.76848 | -79.40600 | 8739 ft | 271 kts | 290° |
| 2026-05-03 21:38 | 25.77555 | -79.42537 | 8522 ft | 271 kts | 290° |
| 2026-05-03 21:39 | 25.78262 | -79.44473 | 8292 ft | 270 kts | 290° |
| 2026-05-03 21:39 | 25.78968 | -79.46403 | 8073 ft | 270 kts | 290° |
| 2026-05-03 21:39 | 25.79673 | -79.48332 | 7854 ft | 269 kts | 290° |
| 2026-05-03 21:39 | 25.80376 | -79.50254 | 7635 ft | 269 kts | 290° |
| 2026-05-03 21:40 | 25.81079 | -79.52177 | 7413 ft | 268 kts | 290° |
| 2026-05-03 21:40 | 25.81779 | -79.54092 | 7196 ft | 268 kts | 290° |
| 2026-05-03 21:40 | 25.82477 | -79.56007 | 6970 ft | 267 kts | 290° |
| 2026-05-03 21:40 | 25.83165 | -79.57892 | 6761 ft | 267 kts | 290° |
| 2026-05-03 21:41 | 25.83871 | -79.59821 | 6537 ft | 266 kts | 290° |
| 2026-05-03 21:41 | 25.84572 | -79.61712 | 6304 ft | 265 kts | 290° |
| 2026-05-03 21:41 | 25.85276 | -79.63579 | 6110 ft | 265 kts | 290° |
| 2026-05-03 21:41 | 25.86012 | -79.65477 | 5987 ft | 264 kts | 292° |
| 2026-05-03 21:42 | 25.86781 | -79.67304 | 5993 ft | 265 kts | 293° |
| 2026-05-03 21:42 | 25.87585 | -79.69149 | 5994 ft | 265 kts | 294° |
| 2026-05-03 21:42 | 25.88394 | -79.70992 | 5994 ft | 265 kts | 294° |
| 2026-05-03 21:42 | 25.89199 | -79.72831 | 5994 ft | 265 kts | 294° |
| 2026-05-03 21:43 | 25.89999 | -79.74676 | 5993 ft | 265 kts | 293° |
| 2026-05-03 21:43 | 25.90792 | -79.76522 | 5994 ft | 265 kts | 293° |
| 2026-05-03 21:43 | 25.91582 | -79.78370 | 5996 ft | 265 kts | 293° |
| 2026-05-03 21:43 | 25.92370 | -79.80218 | 5997 ft | 265 kts | 293° |
| 2026-05-03 21:44 | 25.93157 | -79.82065 | 5997 ft | 265 kts | 293° |
| 2026-05-03 21:44 | 25.93932 | -79.83883 | 5995 ft | 254 kts | 293° |
| 2026-05-03 21:44 | 25.94666 | -79.85599 | 5993 ft | 238 kts | 293° |
| 2026-05-03 21:44 | 25.95353 | -79.87207 | 5996 ft | 223 kts | 293° |
| 2026-05-03 21:45 | 25.96002 | -79.88735 | 6000 ft | 220 kts | 292° |
| 2026-05-03 21:45 | 25.96662 | -79.90288 | 5997 ft | 219 kts | 292° |
| 2026-05-03 21:45 | 25.97312 | -79.91816 | 6003 ft | 219 kts | 292° |
| 2026-05-03 21:45 | 25.97962 | -79.93345 | 6000 ft | 219 kts | 292° |
| 2026-05-03 21:46 | 25.98637 | -79.94860 | 6017 ft | 220 kts | 297° |
| 2026-05-03 21:46 | 25.99553 | -79.96228 | 6001 ft | 222 kts | 309° |
| 2026-05-03 21:46 | 26.00588 | -79.97502 | 6008 ft | 223 kts | 308° |
| 2026-05-03 21:46 | 26.01624 | -79.98775 | 6030 ft | 222 kts | 309° |
| 2026-05-03 21:47 | 26.02665 | -80.00056 | 5980 ft | 223 kts | 308° |
| 2026-05-03 21:47 | 26.03703 | -80.01342 | 6008 ft | 224 kts | 307° |
| 2026-05-03 21:47 | 26.04741 | -80.02628 | 5973 ft | 223 kts | 308° |
| 2026-05-03 21:47 | 26.05783 | -80.03914 | 6007 ft | 224 kts | 308° |
| 2026-05-03 21:48 | 26.06827 | -80.05204 | 6012 ft | 226 kts | 308° |
| 2026-05-03 21:48 | 26.07881 | -80.06506 | 6011 ft | 226 kts | 309° |
| 2026-05-03 21:48 | 26.08927 | -80.07799 | 6011 ft | 224 kts | 309° |
| 2026-05-03 21:48 | 26.09969 | -80.09085 | 6010 ft | 223 kts | 308° |
| 2026-05-03 21:49 | 26.11013 | -80.10374 | 5809 ft | 224 kts | 309° |
| 2026-05-03 21:49 | 26.12051 | -80.11655 | 5560 ft | 222 kts | 309° |
| 2026-05-03 21:49 | 26.13082 | -80.12929 | 5316 ft | 221 kts | 309° |
| 2026-05-03 21:49 | 26.14050 | -80.14252 | 5095 ft | 219 kts | 300° |
| 2026-05-03 21:50 | 26.14704 | -80.15772 | 5004 ft | 218 kts | 286° |
| 2026-05-03 21:50 | 26.15006 | -80.17417 | 5021 ft | 216 kts | 272° |
| 2026-05-03 21:50 | 26.15025 | -80.19083 | 5004 ft | 217 kts | 270° |
| 2026-05-03 21:50 | 26.15026 | -80.20775 | 5016 ft | 219 kts | 270° |
| 2026-05-03 21:51 | 26.15031 | -80.22468 | 5005 ft | 218 kts | 269° |
| 2026-05-03 21:51 | 26.15042 | -80.24150 | 5016 ft | 217 kts | 270° |
| 2026-05-03 21:51 | 26.15055 | -80.25838 | 4911 ft | 219 kts | 270° |
| 2026-05-03 21:51 | 26.15079 | -80.27542 | 4695 ft | 220 kts | 269° |
| 2026-05-03 21:52 | 26.15097 | -80.29238 | 4483 ft | 221 kts | 269° |
| 2026-05-03 21:52 | 26.15098 | -80.30968 | 4236 ft | 225 kts | 269° |
| 2026-05-03 21:52 | 26.15088 | -80.32732 | 3968 ft | 233 kts | 268° |
| 2026-05-03 21:52 | 26.15067 | -80.34580 | 3682 ft | 244 kts | 269° |
| 2026-05-03 21:53 | 26.15038 | -80.36500 | 3437 ft | 257 kts | 268° |
| 2026-05-03 21:53 | 26.15001 | -80.38470 | 3552 ft | 251 kts | 269° |
| 2026-05-03 21:53 | 26.14963 | -80.40360 | 3432 ft | 239 kts | 268° |
| 2026-05-03 21:53 | 26.14935 | -80.42194 | 3146 ft | 234 kts | 270° |
| 2026-05-03 21:54 | 26.14927 | -80.43985 | 2965 ft | 223 kts | 269° |
| 2026-05-03 21:54 | 26.14887 | -80.45683 | 2997 ft | 221 kts | 268° |
| 2026-05-03 21:54 | 26.14855 | -80.46837 | 3004 ft | 221 kts | 268° |
| 2026-05-03 21:54 | 26.14720 | -80.48535 | 3012 ft | 221 kts | 253° |
| 2026-05-03 21:55 | 26.13468 | -80.50256 | 3023 ft | 221 kts | 209° |
| 2026-05-03 21:55 | 26.11975 | -80.50594 | 3015 ft | 224 kts | 178° |
| 2026-05-03 21:55 | 26.10423 | -80.50416 | 3005 ft | 225 kts | 173° |
| 2026-05-03 21:55 | 26.08881 | -80.50121 | 3010 ft | 226 kts | 163° |
| 2026-05-03 21:56 | 26.07938 | -80.49581 | 3008 ft | 228 kts | 143° |
| 2026-05-03 21:56 | 26.06970 | -80.48207 | 3006 ft | 229 kts | 112° |
| 2026-05-03 21:56 | 26.06713 | -80.46472 | 3005 ft | 229 kts | 90° |
| 2026-05-03 21:56 | 26.06714 | -80.44716 | 2999 ft | 221 kts | 89° |
| 2026-05-03 21:57 | 26.06716 | -80.43076 | 3018 ft | 206 kts | 90° |
| 2026-05-03 21:57 | 26.06713 | -80.41506 | 3006 ft | 200 kts | 89° |
| 2026-05-03 21:57 | 26.06708 | -80.39966 | 2994 ft | 199 kts | 90° |
| 2026-05-03 21:57 | 26.06700 | -80.38431 | 3001 ft | 198 kts | 90° |
| 2026-05-03 21:58 | 26.06694 | -80.36901 | 2996 ft | 198 kts | 90° |
| 2026-05-03 21:58 | 26.06689 | -80.35371 | 2998 ft | 198 kts | 89° |
| 2026-05-03 21:58 | 26.06682 | -80.33863 | 2983 ft | 199 kts | 89° |
| 2026-05-03 21:58 | 26.06674 | -80.32333 | 2816 ft | 198 kts | 90° |
| 2026-05-03 21:59 | 26.06666 | -80.30793 | 2591 ft | 195 kts | 90° |
| 2026-05-03 21:59 | 26.06659 | -80.29299 | 2341 ft | 192 kts | 89° |
| 2026-05-03 21:59 | 26.06651 | -80.27853 | 2115 ft | 182 kts | 89° |
| 2026-05-03 21:59 | 26.06645 | -80.26451 | 1864 ft | 180 kts | 89° |
| 2026-05-03 22:00 | 26.06638 | -80.25086 | 1635 ft | 178 kts | 89° |
| 2026-05-03 22:00 | 26.06630 | -80.23780 | 1434 ft | 152 kts | 89° |
| 2026-05-03 22:00 | 26.06624 | -80.22651 | 1255 ft | 148 kts | 89° |
| 2026-05-03 22:00 | 26.06612 | -80.21491 | 1084 ft | 147 kts | 89° |
| 2026-05-03 22:01 | 26.06593 | -80.20391 | 906 ft | 144 kts | 88° |
| 2026-05-03 22:01 | 26.06606 | -80.19260 | 704 ft | 145 kts | 86° |
| 2026-05-03 22:02 | 26.06589 | -80.14945 | 19 ft | 107 kts | 90° |
| 2026-05-03 22:02 | 26.06583 | -80.14448 | 45 ft | 30 kts | 91° |
| 2026-05-03 22:02 | 26.06600 | -80.14269 | 50 ft | 15 kts | 69° |
| 2026-05-03 22:03 | 26.06662 | -80.14240 | 50 ft | 9 kts | 330° |
| 2026-05-03 22:03 | 26.06676 | -80.14272 | 49 ft | 3 kts | 278° |
| 2026-05-03 22:03 | 26.06677 | -80.14308 | 49 ft | 6 kts | 271° |
| 2026-05-03 22:03 | 26.06677 | -80.14361 | 49 ft | 8 kts | 270° |
| 2026-05-03 22:04 | 26.06677 | -80.14441 | 45 ft | 13 kts | 268° |
| 2026-05-03 22:04 | 26.06675 | -80.14548 | 42 ft | 14 kts | 269° |
| 2026-05-03 22:04 | 26.06673 | -80.14672 | 32 ft | 18 kts | 267° |
| 2026-05-03 22:04 | 26.06674 | -80.14806 | 22 ft | 12 kts | 273° |
| 2026-05-03 22:05 | 26.06691 | -80.14899 | 20 ft | 11 kts | 304° |
| 2026-05-03 22:05 | 26.06757 | -80.14949 | 16 ft | 13 kts | 300° |
| 2026-05-03 22:05 | 26.06767 | -80.15055 | 16 ft | 15 kts | 269° |
| 2026-05-03 22:05 | 26.06810 | -80.15128 | 17 ft | 13 kts | 349° |
| 2026-05-03 22:06 | 26.06895 | -80.15120 | 16 ft | 11 kts | 34° |
| 2026-05-03 22:06 | 26.06912 | -80.15035 | 16 ft | 13 kts | 89° |
| 2026-05-03 22:06 | 26.06912 | -80.14943 | 16 ft | 11 kts | 90° |
| 2026-05-03 22:06 | 26.06912 | -80.14873 | 16 ft | 7 kts | 89° |
| 2026-05-03 22:07 | 26.06912 | -80.14869 | 16 ft | 0 kts | 89° |
| 2026-05-03 22:10 | 26.06912 | -80.14859 | 16 ft | 5 kts | 89° |
| 2026-05-03 22:10 | 26.06903 | -80.14795 | 16 ft | 10 kts | 116° |
| 2026-05-03 22:10 | 26.06852 | -80.14732 | 16 ft | 12 kts | 135° |
| 2026-05-03 22:11 | 26.06832 | -80.14710 | 17 ft | 0 kts | 136° |